createdAt,value
2022-12-14T00:03:57.254Z,18.07
2022-12-14T00:09:52.006Z,18.00
2022-12-14T00:15:45.390Z,17.30
2022-12-14T00:21:38.891Z,15.97
2022-12-14T00:27:33.625Z,14.80
2022-12-14T00:33:27.017Z,16.10
2022-12-14T00:39:20.507Z,15.97
2022-12-14T00:45:15.221Z,18.50
2022-12-14T00:51:08.609Z,15.77
2022-12-14T00:57:01.969Z,16.10
2022-12-14T01:02:56.748Z,15.23
2022-12-14T01:08:50.821Z,15.83
2022-12-14T01:14:44.200Z,19.13
2022-12-14T01:20:38.985Z,14.70
2022-12-14T01:26:34.792Z,17.50
2022-12-14T01:32:28.199Z,16.67
2022-12-14T01:38:23.438Z,14.27
2022-12-14T01:44:51.396Z,14.63
2022-12-14T01:50:47.276Z,15.37
2022-12-14T01:56:46.271Z,17.40
2022-12-14T02:02:43.321Z,15.93
2022-12-14T02:08:38.573Z,16.57
2022-12-14T02:14:34.855Z,15.63
2022-12-14T02:20:37.036Z,17.60
2022-12-14T02:26:49.897Z,15.93
2022-12-14T02:33:21.436Z,15.20
2022-12-14T02:39:28.959Z,17.40
2022-12-14T02:45:28.547Z,16.57
2022-12-14T02:51:27.706Z,15.57
2022-12-14T02:57:26.286Z,14.07
2022-12-14T03:03:19.685Z,14.10
2022-12-14T03:09:19.371Z,17.23
2022-12-14T03:15:17.079Z,14.97
2022-12-14T03:21:15.111Z,15.90
2022-12-14T03:27:16.260Z,18.47
2022-12-14T03:33:16.443Z,16.77
2022-12-14T03:39:13.789Z,18.03
2022-12-14T03:45:18.952Z,15.57
2022-12-14T03:51:18.764Z,15.43
2022-12-14T03:57:19.648Z,17.27
2022-12-14T04:03:21.593Z,15.70
2022-12-14T04:09:29.685Z,17.20
2022-12-14T04:15:44.920Z,19.30
2022-12-14T04:21:45.225Z,16.23
2022-12-14T04:27:42.513Z,18.37
2022-12-14T04:33:48.164Z,16.13
2022-12-14T04:39:48.856Z,17.97
2022-12-14T04:45:45.282Z,16.03
2022-12-14T04:51:47.911Z,15.40
2022-12-14T04:57:47.114Z,15.40
2022-12-14T05:03:51.962Z,16.43
2022-12-14T05:09:55.644Z,14.77
2022-12-14T05:15:53.076Z,19.47
2022-12-14T05:21:49.479Z,15.67
2022-12-14T05:27:42.945Z,17.10
2022-12-14T05:33:37.264Z,15.67
2022-12-14T05:39:30.721Z,15.10
2022-12-14T05:45:24.234Z,15.77
2022-12-14T05:51:19.376Z,17.50
2022-12-14T05:57:12.905Z,18.10
2022-12-14T06:03:05.957Z,18.60
2022-12-14T06:09:00.363Z,26.93
2022-12-14T06:14:53.773Z,19.83
2022-12-14T06:20:47.288Z,18.20
2022-12-14T06:26:42.351Z,18.60
2022-12-14T06:32:35.772Z,15.33
2022-12-14T06:38:29.419Z,16.57
2022-12-14T06:44:24.317Z,16.80
2022-12-14T06:50:17.925Z,15.03
2022-12-14T06:56:12.829Z,17.07
2022-12-14T07:02:07.432Z,16.30
2022-12-14T07:08:00.494Z,17.70
2022-12-14T07:13:54.724Z,16.70
2022-12-14T07:19:50.079Z,15.50
2022-12-14T07:25:43.006Z,17.30
2022-12-14T07:31:36.623Z,13.63
2022-12-14T07:37:31.526Z,14.70
2022-12-14T07:43:25.275Z,18.00
2022-12-14T07:49:18.704Z,14.40
2022-12-14T07:55:13.521Z,16.20
2022-12-14T08:01:12.567Z,20.10
2022-12-14T08:07:05.849Z,15.70
2022-12-14T08:13:00.776Z,16.93
2022-12-14T08:18:55.244Z,20.93
2022-12-14T08:24:49.401Z,18.47
2022-12-14T08:30:44.588Z,17.80
2022-12-14T08:36:37.528Z,20.10
2022-12-14T08:42:30.571Z,18.33
2022-12-14T08:48:25.605Z,17.10
2022-12-14T08:54:20.033Z,17.10
2022-12-14T09:00:14.734Z,17.27
2022-12-14T09:06:11.984Z,16.60
2022-12-14T09:12:06.703Z,16.13
2022-12-14T09:18:00.357Z,17.50
2022-12-14T09:23:59.324Z,17.33
2022-12-14T09:29:53.760Z,19.57
2022-12-14T09:35:47.159Z,18.00
2022-12-14T09:41:57.739Z,18.40
2022-12-14T09:47:59.925Z,18.67
2022-12-14T09:54:02.790Z,20.90
2022-12-14T09:59:58.037Z,16.53
2022-12-14T10:06:04.291Z,14.70
2022-12-14T10:12:06.782Z,15.03
2022-12-14T10:18:58.350Z,12.10
2022-12-14T10:24:50.335Z,15.33
2022-12-14T10:30:44.907Z,13.87
2022-12-14T10:36:51.722Z,14.07
2022-12-14T10:42:52.311Z,12.03
2022-12-14T10:48:55.711Z,12.53
2022-12-14T10:54:54.318Z,12.47
2022-12-14T11:00:54.369Z,14.97
2022-12-14T11:06:47.823Z,13.40
2022-12-14T11:12:42.665Z,14.43
2022-12-14T11:18:36.260Z,15.80
2022-12-14T11:24:30.588Z,13.90
2022-12-14T11:30:25.425Z,14.80
2022-12-14T11:36:25.283Z,16.93
2022-12-14T11:42:20.337Z,19.80
2022-12-14T11:48:25.577Z,13.43
2022-12-14T11:54:19.005Z,13.60
2022-12-14T12:00:25.505Z,12.10
2022-12-14T12:06:25.340Z,15.80
2022-12-14T12:12:20.148Z,12.57
2022-12-14T12:18:19.186Z,14.93
2022-12-14T12:24:18.641Z,12.27
2022-12-14T12:30:23.714Z,11.97
2022-12-14T12:36:24.130Z,13.57
2022-12-14T12:42:26.660Z,11.90
2022-12-14T12:48:24.231Z,13.90
2022-12-14T12:54:22.728Z,14.30
2022-12-14T13:00:20.127Z,14.47
2022-12-14T13:06:21.761Z,14.50
2022-12-14T13:12:23.370Z,12.90
2022-12-14T13:18:49.151Z,16.10
2022-12-14T13:24:38.379Z,12.57
2022-12-14T13:30:54.410Z,11.97
2022-12-14T13:37:17.215Z,13.07
2022-12-14T13:43:25.502Z,11.00
2022-12-14T13:49:22.814Z,14.83
2022-12-14T13:55:30.051Z,13.07
2022-12-14T14:01:58.738Z,13.33
2022-12-14T14:07:54.004Z,14.37
2022-12-14T14:14:11.052Z,12.50
2022-12-14T14:20:32.505Z,14.90
2022-12-14T14:26:31.023Z,12.13
2022-12-14T14:32:43.730Z,15.53
2022-12-14T14:38:39.480Z,14.23
2022-12-14T14:44:38.909Z,14.23
2022-12-14T14:50:38.429Z,15.20
2022-12-14T14:56:37.261Z,17.37
2022-12-14T15:02:34.162Z,15.37
2022-12-14T15:08:36.102Z,24.50
2022-12-14T15:14:35.510Z,23.73
2022-12-14T15:20:30.753Z,16.90
2022-12-14T15:26:28.983Z,16.03
2022-12-14T15:32:25.293Z,18.00
2022-12-14T15:38:23.988Z,24.27
2022-12-14T15:44:22.949Z,16.77
2022-12-14T15:50:18.829Z,16.47
2022-12-14T15:56:20.146Z,13.33
2022-12-14T16:02:26.469Z,14.83
2022-12-14T16:08:20.871Z,23.53
2022-12-14T16:14:21.757Z,29.10
2022-12-14T16:20:22.736Z,22.03
2022-12-14T16:26:25.203Z,20.90
2022-12-14T16:32:18.457Z,17.77
2022-12-14T16:38:14.745Z,20.40
2022-12-14T16:44:10.488Z,23.10
2022-12-14T16:50:03.846Z,20.57
2022-12-14T16:56:07.270Z,21.27
2022-12-14T17:02:01.388Z,21.10
2022-12-14T17:07:54.648Z,23.43
2022-12-14T17:13:49.665Z,22.33
2022-12-14T17:19:43.683Z,20.07
2022-12-14T17:25:39.181Z,31.40
2022-12-14T17:31:36.492Z,24.30
2022-12-14T17:37:35.638Z,20.57
2022-12-14T17:43:29.987Z,21.00
2022-12-14T17:49:34.806Z,25.00
2022-12-14T17:55:30.584Z,23.93
2022-12-14T18:01:26.270Z,37.67
2022-12-14T18:07:20.761Z,41.43
2022-12-14T18:13:14.574Z,53.90
2022-12-14T18:19:07.606Z,62.23
2022-12-14T18:25:02.583Z,31.83
2022-12-14T18:30:58.915Z,25.80
2022-12-14T18:36:54.017Z,23.03
2022-12-14T18:42:49.707Z,20.00
2022-12-14T18:48:43.907Z,22.33
2022-12-14T18:54:38.363Z,20.00
2022-12-14T19:00:35.626Z,21.00
2022-12-14T19:06:45.713Z,25.63
2022-12-14T19:12:39.720Z,23.93
2022-12-14T19:18:35.636Z,24.37
2022-12-14T19:24:28.960Z,23.83
2022-12-14T19:30:23.620Z,20.60
2022-12-14T19:36:18.035Z,19.67
2022-12-14T19:42:11.679Z,17.53
2022-12-14T19:48:09.936Z,20.40
2022-12-14T19:54:08.145Z,23.43
2022-12-14T20:00:01.920Z,22.40
2022-12-14T20:06:03.452Z,19.20
2022-12-14T20:11:58.001Z,21.57
2022-12-14T20:17:51.440Z,20.70
2022-12-14T20:23:45.273Z,21.37
2022-12-14T20:29:39.733Z,20.00
2022-12-14T20:35:35.007Z,20.20
2022-12-14T20:41:28.965Z,18.93
2022-12-14T20:47:23.836Z,22.20
2022-12-14T20:53:17.217Z,18.40
2022-12-14T20:59:11.411Z,21.27
2022-12-14T21:05:06.895Z,20.80
2022-12-14T21:11:24.301Z,21.30
2022-12-14T21:17:17.427Z,18.57
2022-12-14T21:23:12.194Z,16.60
2022-12-14T21:29:06.942Z,19.53
2022-12-14T21:35:00.423Z,23.27
2022-12-14T21:41:13.774Z,18.77
2022-12-14T21:47:09.888Z,18.67
2022-12-14T21:53:03.413Z,16.50
2022-12-14T21:58:58.191Z,20.27
2022-12-14T22:04:56.481Z,16.90
2022-12-14T22:10:50.330Z,16.87
2022-12-14T22:16:45.482Z,18.10
2022-12-14T22:22:39.073Z,17.20
2022-12-14T22:28:32.457Z,17.47
2022-12-14T22:34:27.391Z,16.93
2022-12-14T22:40:20.815Z,16.37
2022-12-14T22:46:15.354Z,17.37
2022-12-14T22:52:10.215Z,15.33
2022-12-14T22:58:03.969Z,18.77
2022-12-14T23:03:57.261Z,13.00
2022-12-14T23:10:09.484Z,15.10
2022-12-14T23:16:20.506Z,15.63
2022-12-14T23:22:31.301Z,15.97
2022-12-14T23:28:43.771Z,15.57
2022-12-14T23:35:01.082Z,15.00
2022-12-14T23:41:16.906Z,14.30
2022-12-14T23:47:29.122Z,15.00
2022-12-14T23:53:40.160Z,17.50
2022-12-14T23:59:51.304Z,18.23
